sensor_id;sensor_type;location;lat;lon;timestamp;temperature;humidity
2062;DHT22;11070;51.336;12.340;2023-01-15T00:00:58;9.90;1.00
2062;DHT22;11070;51.336;12.340;2023-01-15T00:03:24;9.90;1.00
2062;DHT22;11070;51.336;12.340;2023-01-15T00:05:49;9.90;1.00
2062;DHT22;11070;51.336;12.340;2023-01-15T00:08:15;10.00;1.00
2062;DHT22;11070;51.336;12.340;2023-01-15T00:10:41;9.90;1.00
2062;DHT22;11070;51.336;12.340;2023-01-15T00:13:06;9.90;1.00
2062;DHT22;11070;51.336;12.340;2023-01-15T00:15:32;9.90;1.00
2062;DHT22;11070;51.336;12.340;2023-01-15T00:17:58;9.90;6.70
2062;DHT22;11070;51.336;12.340;2023-01-15T00:22:50;9.80;84.20
2062;DHT22;11070;51.336;12.340;2023-01-15T00:25:16;9.80;59.50
2062;DHT22;11070;51.336;12.340;2023-01-15T00:28:00;9.80;99.90
2062;DHT22;11070;51.336;12.340;2023-01-15T00:30:26;9.80;99.90
2062;DHT22;11070;51.336;12.340;2023-01-15T00:32:51;9.80;99.90
2062;DHT22;11070;51.336;12.340;2023-01-15T00:35:22;9.70;1.00
2062;DHT22;11070;51.336;12.340;2023-01-15T00:37:48;9.70;1.00
2062;DHT22;11070;51.336;12.340;2023-01-15T00:40:16;9.70;99.90
2062;DHT22;11070;51.336;12.340;2023-01-15T00:42:42;9.70;1.00
2062;DHT22;11070;51.336;12.340;2023-01-15T00:45:09;9.70;1.00
2062;DHT22;11070;51.336;12.340;2023-01-15T00:47:43;9.70;1.00
2062;DHT22;11070;51.336;12.340;2023-01-15T00:50:11;9.70;1.00
2062;DHT22;11070;51.336;12.340;2023-01-15T00:52:37;9.70;1.00
2062;DHT22;11070;51.336;12.340;2023-01-15T00:55:03;9.70;1.00
2062;DHT22;11070;51.336;12.340;2023-01-15T00:57:29;9.70;57.80
2062;DHT22;11070;51.336;12.340;2023-01-15T00:59:55;9.80;1.00
2062;DHT22;11070;51.336;12.340;2023-01-15T01:02:20;9.80;1.00
2062;DHT22;11070;51.336;12.340;2023-01-15T01:04:46;9.80;1.00
2062;DHT22;11070;51.336;12.340;2023-01-15T01:07:12;9.80;1.00
2062;DHT22;11070;51.336;12.340;2023-01-15T01:09:38;9.80;1.00
2062;DHT22;11070;51.336;12.340;2023-01-15T01:12:04;9.80;1.00
2062;DHT22;11070;51.336;12.340;2023-01-15T01:14:29;9.80;1.00
2062;DHT22;11070;51.336;12.340;2023-01-15T01:16:55;9.90;22.40
2062;DHT22;11070;51.336;12.340;2023-01-15T01:19:23;9.90;99.90
2062;DHT22;11070;51.336;12.340;2023-01-15T01:21:50;9.90;99.90
2062;DHT22;11070;51.336;12.340;2023-01-15T01:24:19;9.90;99.90
2062;DHT22;11070;51.336;12.340;2023-01-15T01:26:46;9.90;99.90
2062;DHT22;11070;51.336;12.340;2023-01-15T01:29:13;9.90;99.90
2062;DHT22;11070;51.336;12.340;2023-01-15T01:31:38;9.90;99.90
2062;DHT22;11070;51.336;12.340;2023-01-15T01:34:04;9.90;99.90
2062;DHT22;11070;51.336;12.340;2023-01-15T01:36:32;10.00;99.90
2062;DHT22;11070;51.336;12.340;2023-01-15T01:38:59;9.90;99.90
2062;DHT22;11070;51.336;12.340;2023-01-15T01:41:25;9.90;99.90
2062;DHT22;11070;51.336;12.340;2023-01-15T01:44:07;10.00;99.90
2062;DHT22;11070;51.336;12.340;2023-01-15T01:46:52;10.00;99.90
2062;DHT22;11070;51.336;12.340;2023-01-15T01:49:17;10.00;99.90
2062;DHT22;11070;51.336;12.340;2023-01-15T01:51:48;10.10;99.90
2062;DHT22;11070;51.336;12.340;2023-01-15T01:54:17;10.10;99.90
2062;DHT22;11070;51.336;12.340;2023-01-15T01:56:44;10.20;99.90
2062;DHT22;11070;51.336;12.340;2023-01-15T01:59:10;10.10;99.90
2062;DHT22;11070;51.336;12.340;2023-01-15T02:01:36;10.10;99.90
2062;DHT22;11070;51.336;12.340;2023-01-15T02:04:05;10.10;1.00
2062;DHT22;11070;51.336;12.340;2023-01-15T02:06:32;10.10;1.00
2062;DHT22;11070;51.336;12.340;2023-01-15T02:08:58;10.10;1.00
2062;DHT22;11070;51.336;12.340;2023-01-15T02:11:24;10.10;1.00
2062;DHT22;11070;51.336;12.340;2023-01-15T02:16:36;10.10;99.90
2062;DHT22;11070;51.336;12.340;2023-01-15T02:25:22;10.10;99.90
2062;DHT22;11070;51.336;12.340;2023-01-15T02:27:57;10.20;20.00
2062;DHT22;11070;51.336;12.340;2023-01-15T02:30:34;10.20;2.00
2062;DHT22;11070;51.336;12.340;2023-01-15T02:33:19;10.20;33.60
2062;DHT22;11070;51.336;12.340;2023-01-15T02:35:57;10.20;14.90
2062;DHT22;11070;51.336;12.340;2023-01-15T02:38:29;10.20;99.90
2062;DHT22;11070;51.336;12.340;2023-01-15T02:40:59;10.20;99.90
2062;DHT22;11070;51.336;12.340;2023-01-15T02:43:30;10.20;99.90
2062;DHT22;11070;51.336;12.340;2023-01-15T02:45:59;10.20;99.90
2062;DHT22;11070;51.336;12.340;2023-01-15T02:48:29;10.20;99.90
2062;DHT22;11070;51.336;12.340;2023-01-15T02:51:06;10.20;99.90
2062;DHT22;11070;51.336;12.340;2023-01-15T02:53:35;10.20;99.90
2062;DHT22;11070;51.336;12.340;2023-01-15T02:56:08;10.20;1.00
2062;DHT22;11070;51.336;12.340;2023-01-15T02:58:38;10.20;1.00
2062;DHT22;11070;51.336;12.340;2023-01-15T03:09:41;10.20;1.00
2062;DHT22;11070;51.336;12.340;2023-01-15T03:12:20;10.20;71.80
2062;DHT22;11070;51.336;12.340;2023-01-15T03:14:55;10.10;99.90
2062;DHT22;11070;51.336;12.340;2023-01-15T03:17:43;10.10;99.90
2062;DHT22;11070;51.336;12.340;2023-01-15T03:20:19;10.00;99.90
2062;DHT22;11070;51.336;12.340;2023-01-15T03:22:48;10.00;99.90
2062;DHT22;11070;51.336;12.340;2023-01-15T03:25:22;10.00;1.00
2062;DHT22;11070;51.336;12.340;2023-01-15T03:27:49;10.00;1.00
2062;DHT22;11070;51.336;12.340;2023-01-15T03:30:19;10.00;1.00
2062;DHT22;11070;51.336;12.340;2023-01-15T03:32:45;10.00;1.00
2062;DHT22;11070;51.336;12.340;2023-01-15T03:38:08;10.00;1.00
2062;DHT22;11070;51.336;12.340;2023-01-15T03:40:37;10.00;1.00
2062;DHT22;11070;51.336;12.340;2023-01-15T03:43:08;10.00;1.00
2062;DHT22;11070;51.336;12.340;2023-01-15T03:46:00;10.00;1.00
2062;DHT22;11070;51.336;12.340;2023-01-15T03:48:34;10.00;1.00
2062;DHT22;11070;51.336;12.340;2023-01-15T03:51:10;10.10;1.00
2062;DHT22;11070;51.336;12.340;2023-01-15T03:54:12;10.10;1.00
2062;DHT22;11070;51.336;12.340;2023-01-15T03:59:06;10.30;99.90
2062;DHT22;11070;51.336;12.340;2023-01-15T04:01:38;10.40;99.90
2062;DHT22;11070;51.336;12.340;2023-01-15T04:04:05;10.40;99.90
2062;DHT22;11070;51.336;12.340;2023-01-15T04:06:34;10.40;99.90
2062;DHT22;11070;51.336;12.340;2023-01-15T04:09:03;10.40;99.90
2062;DHT22;11070;51.336;12.340;2023-01-15T04:11:29;10.40;99.90
2062;DHT22;11070;51.336;12.340;2023-01-15T04:13:54;10.40;99.90
2062;DHT22;11070;51.336;12.340;2023-01-15T04:16:25;10.40;99.90
2062;DHT22;11070;51.336;12.340;2023-01-15T04:18:52;10.30;1.00
2062;DHT22;11070;51.336;12.340;2023-01-15T04:21:17;10.20;1.00
2062;DHT22;11070;51.336;12.340;2023-01-15T04:23:43;10.00;1.00
2062;DHT22;11070;51.336;12.340;2023-01-15T04:26:09;9.80;1.00
2062;DHT22;11070;51.336;12.340;2023-01-15T04:28:34;9.60;11.40
2062;DHT22;11070;51.336;12.340;2023-01-15T04:31:00;9.50;41.10
2062;DHT22;11070;51.336;12.340;2023-01-15T04:33:26;9.40;53.80
2062;DHT22;11070;51.336;12.340;2023-01-15T04:35:51;9.30;67.80
2062;DHT22;11070;51.336;12.340;2023-01-15T04:38:17;9.30;55.90
2062;DHT22;11070;51.336;12.340;2023-01-15T04:40:43;9.30;53.90
2062;DHT22;11070;51.336;12.340;2023-01-15T04:43:28;9.20;91.40
2062;DHT22;11070;51.336;12.340;2023-01-15T04:46:12;9.20;99.90
2062;DHT22;11070;51.336;12.340;2023-01-15T04:48:38;9.20;99.90
2062;DHT22;11070;51.336;12.340;2023-01-15T04:51:05;9.20;99.90
2062;DHT22;11070;51.336;12.340;2023-01-15T04:53:32;8.90;74.20
2062;DHT22;11070;51.336;12.340;2023-01-15T04:56:04;8.50;1.00
2062;DHT22;11070;51.336;12.340;2023-01-15T04:58:31;8.10;1.00
2062;DHT22;11070;51.336;12.340;2023-01-15T05:00:57;7.60;1.00
2062;DHT22;11070;51.336;12.340;2023-01-15T05:03:28;7.40;1.00
2062;DHT22;11070;51.336;12.340;2023-01-15T05:05:54;7.30;1.00
2062;DHT22;11070;51.336;12.340;2023-01-15T05:08:20;7.20;1.00
2062;DHT22;11070;51.336;12.340;2023-01-15T05:10:46;7.20;52.10
2062;DHT22;11070;51.336;12.340;2023-01-15T05:13:12;7.30;86.90
2062;DHT22;11070;51.336;12.340;2023-01-15T05:15:37;7.20;22.10
2062;DHT22;11070;51.336;12.340;2023-01-15T05:18:05;7.10;17.30
2062;DHT22;11070;51.336;12.340;2023-01-15T05:20:34;7.00;1.00
2062;DHT22;11070;51.336;12.340;2023-01-15T05:23:00;6.90;1.00
2062;DHT22;11070;51.336;12.340;2023-01-15T05:25:25;6.80;1.00
2062;DHT22;11070;51.336;12.340;2023-01-15T05:27:51;6.70;1.00
2062;DHT22;11070;51.336;12.340;2023-01-15T05:30:17;6.50;1.00
2062;DHT22;11070;51.336;12.340;2023-01-15T05:32:42;6.50;29.00
2062;DHT22;11070;51.336;12.340;2023-01-15T05:35:08;6.50;16.30
2062;DHT22;11070;51.336;12.340;2023-01-15T05:37:34;6.50;19.30
2062;DHT22;11070;51.336;12.340;2023-01-15T05:39:59;6.40;14.50
2062;DHT22;11070;51.336;12.340;2023-01-15T05:42:25;6.40;22.10
2062;DHT22;11070;51.336;12.340;2023-01-15T05:44:51;6.40;26.50
2062;DHT22;11070;51.336;12.340;2023-01-15T05:47:17;6.40;24.10
2062;DHT22;11070;51.336;12.340;2023-01-15T05:49:43;6.40;28.00
2062;DHT22;11070;51.336;12.340;2023-01-15T05:52:08;6.30;25.70
2062;DHT22;11070;51.336;12.340;2023-01-15T05:54:35;6.30;22.00
2062;DHT22;11070;51.336;12.340;2023-01-15T05:57:01;6.30;46.40
2062;DHT22;11070;51.336;12.340;2023-01-15T05:59:29;6.30;95.70
2062;DHT22;11070;51.336;12.340;2023-01-15T06:01:56;6.40;99.90
2062;DHT22;11070;51.336;12.340;2023-01-15T06:04:22;6.40;99.90
2062;DHT22;11070;51.336;12.340;2023-01-15T06:06:53;6.40;99.90
2062;DHT22;11070;51.336;12.340;2023-01-15T06:09:19;6.40;99.90
2062;DHT22;11070;51.336;12.340;2023-01-15T06:11:45;6.40;99.90
2062;DHT22;11070;51.336;12.340;2023-01-15T06:14:12;6.40;99.90
2062;DHT22;11070;51.336;12.340;2023-01-15T06:16:38;6.40;99.90
2062;DHT22;11070;51.336;12.340;2023-01-15T06:19:05;6.40;99.90
2062;DHT22;11070;51.336;12.340;2023-01-15T06:21:33;6.40;99.90
2062;DHT22;11070;51.336;12.340;2023-01-15T06:23:59;6.40;99.90
2062;DHT22;11070;51.336;12.340;2023-01-15T06:26:24;6.30;98.00
2062;DHT22;11070;51.336;12.340;2023-01-15T06:28:50;6.30;94.90
2062;DHT22;11070;51.336;12.340;2023-01-15T06:31:19;6.30;97.10
2062;DHT22;11070;51.336;12.340;2023-01-15T06:33:45;6.30;99.90
2062;DHT22;11070;51.336;12.340;2023-01-15T06:36:16;6.20;99.90
2062;DHT22;11070;51.336;12.340;2023-01-15T06:38:42;6.20;99.90
2062;DHT22;11070;51.336;12.340;2023-01-15T06:41:15;6.10;99.90
2062;DHT22;11070;51.336;12.340;2023-01-15T06:44:00;6.10;99.90
2062;DHT22;11070;51.336;12.340;2023-01-15T06:46:46;6.10;99.90
2062;DHT22;11070;51.336;12.340;2023-01-15T06:49:32;6.00;86.60
2062;DHT22;11070;51.336;12.340;2023-01-15T06:51:58;6.00;68.60
2062;DHT22;11070;51.336;12.340;2023-01-15T06:54:23;6.00;1.00
2062;DHT22;11070;51.336;12.340;2023-01-15T06:56:49;6.00;1.00
2062;DHT22;11070;51.336;12.340;2023-01-15T06:59:15;6.10;1.00
2062;DHT22;11070;51.336;12.340;2023-01-15T07:01:41;6.10;1.00
2062;DHT22;11070;51.336;12.340;2023-01-15T07:04:07;6.10;1.00
2062;DHT22;11070;51.336;12.340;2023-01-15T07:06:32;6.10;99.90
2062;DHT22;11070;51.336;12.340;2023-01-15T07:08:58;6.20;1.00
2062;DHT22;11070;51.336;12.340;2023-01-15T07:11:24;6.10;1.00
2062;DHT22;11070;51.336;12.340;2023-01-15T07:13:50;6.10;1.00
2062;DHT22;11070;51.336;12.340;2023-01-15T07:16:16;6.10;17.70
2062;DHT22;11070;51.336;12.340;2023-01-15T07:18:54;6.00;1.00
2062;DHT22;11070;51.336;12.340;2023-01-15T07:21:20;6.00;49.30
2062;DHT22;11070;51.336;12.340;2023-01-15T07:23:46;5.90;1.00
2062;DHT22;11070;51.336;12.340;2023-01-15T07:26:12;5.80;99.90
2062;DHT22;11070;51.336;12.340;2023-01-15T07:28:37;5.80;99.90
2062;DHT22;11070;51.336;12.340;2023-01-15T07:31:03;5.80;1.00
2062;DHT22;11070;51.336;12.340;2023-01-15T07:33:29;5.80;1.00
2062;DHT22;11070;51.336;12.340;2023-01-15T07:35:54;5.70;99.90
2062;DHT22;11070;51.336;12.340;2023-01-15T07:38:21;5.70;1.00
2062;DHT22;11070;51.336;12.340;2023-01-15T07:40:47;5.70;99.90
2062;DHT22;11070;51.336;12.340;2023-01-15T07:43:33;5.70;1.00
2062;DHT22;11070;51.336;12.340;2023-01-15T07:46:17;5.70;99.90
2062;DHT22;11070;51.336;12.340;2023-01-15T07:49:01;5.70;1.00
2062;DHT22;11070;51.336;12.340;2023-01-15T07:51:45;5.70;99.90
2062;DHT22;11070;51.336;12.340;2023-01-15T07:54:11;5.70;99.90
2062;DHT22;11070;51.336;12.340;2023-01-15T07:56:36;5.70;1.00
2062;DHT22;11070;51.336;12.340;2023-01-15T07:59:02;5.70;1.00
2062;DHT22;11070;51.336;12.340;2023-01-15T08:01:28;5.70;3.50
2062;DHT22;11070;51.336;12.340;2023-01-15T08:03:54;5.80;99.90
2062;DHT22;11070;51.336;12.340;2023-01-15T08:06:19;5.70;99.90
2062;DHT22;11070;51.336;12.340;2023-01-15T08:08:45;5.70;99.90
2062;DHT22;11070;51.336;12.340;2023-01-15T08:11:10;5.70;46.60
2062;DHT22;11070;51.336;12.340;2023-01-15T08:13:55;5.70;1.00
2062;DHT22;11070;51.336;12.340;2023-01-15T08:16:39;5.70;1.00
2062;DHT22;11070;51.336;12.340;2023-01-15T08:19:04;5.70;99.90
2062;DHT22;11070;51.336;12.340;2023-01-15T08:21:30;5.70;95.00
2062;DHT22;11070;51.336;12.340;2023-01-15T08:23:56;5.70;1.00
2062;DHT22;11070;51.336;12.340;2023-01-15T08:26:21;5.70;99.90
2062;DHT22;11070;51.336;12.340;2023-01-15T08:28:47;5.70;1.00
2062;DHT22;11070;51.336;12.340;2023-01-15T08:31:13;5.70;1.00
2062;DHT22;11070;51.336;12.340;2023-01-15T08:33:38;5.70;1.00
2062;DHT22;11070;51.336;12.340;2023-01-15T08:36:04;5.60;1.00
2062;DHT22;11070;51.336;12.340;2023-01-15T08:38:30;5.60;1.00
2062;DHT22;11070;51.336;12.340;2023-01-15T08:40:56;5.60;1.00
2062;DHT22;11070;51.336;12.340;2023-01-15T08:43:25;5.60;99.90
2062;DHT22;11070;51.336;12.340;2023-01-15T08:45:51;5.60;99.90
2062;DHT22;11070;51.336;12.340;2023-01-15T08:48:17;5.60;1.00
2062;DHT22;11070;51.336;12.340;2023-01-15T08:50:43;5.60;1.00
2062;DHT22;11070;51.336;12.340;2023-01-15T08:53:09;5.70;99.90
2062;DHT22;11070;51.336;12.340;2023-01-15T08:55:36;5.60;1.00
2062;DHT22;11070;51.336;12.340;2023-01-15T08:58:01;5.70;99.90
2062;DHT22;11070;51.336;12.340;2023-01-15T09:00:27;5.70;1.00
2062;DHT22;11070;51.336;12.340;2023-01-15T09:02:53;5.70;1.00
2062;DHT22;11070;51.336;12.340;2023-01-15T09:05:18;5.70;99.90
2062;DHT22;11070;51.336;12.340;2023-01-15T09:07:44;5.80;99.90
2062;DHT22;11070;51.336;12.340;2023-01-15T09:10:10;5.80;1.00
2062;DHT22;11070;51.336;12.340;2023-01-15T09:12:35;5.80;15.80
2062;DHT22;11070;51.336;12.340;2023-01-15T09:15:01;5.80;1.00
2062;DHT22;11070;51.336;12.340;2023-01-15T09:17:27;5.80;1.00
2062;DHT22;11070;51.336;12.340;2023-01-15T09:19:52;5.90;1.00
2062;DHT22;11070;51.336;12.340;2023-01-15T09:22:18;5.90;1.00
2062;DHT22;11070;51.336;12.340;2023-01-15T09:24:44;5.90;1.00
2062;DHT22;11070;51.336;12.340;2023-01-15T09:27:11;6.00;1.00
2062;DHT22;11070;51.336;12.340;2023-01-15T09:29:37;6.00;1.00
2062;DHT22;11070;51.336;12.340;2023-01-15T09:32:02;6.00;1.00
2062;DHT22;11070;51.336;12.340;2023-01-15T09:34:28;6.10;99.90
2062;DHT22;11070;51.336;12.340;2023-01-15T09:36:54;6.10;11.30
2062;DHT22;11070;51.336;12.340;2023-01-15T09:39:20;6.10;1.00
2062;DHT22;11070;51.336;12.340;2023-01-15T09:47:08;6.20;99.90
2062;DHT22;11070;51.336;12.340;2023-01-15T09:55:06;6.40;1.00
2062;DHT22;11070;51.336;12.340;2023-01-15T09:57:35;6.40;1.00
2062;DHT22;11070;51.336;12.340;2023-01-15T10:00:03;6.50;99.90
2062;DHT22;11070;51.336;12.340;2023-01-15T10:02:46;6.50;99.90
2062;DHT22;11070;51.336;12.340;2023-01-15T10:05:34;6.50;99.90
2062;DHT22;11070;51.336;12.340;2023-01-15T10:08:05;6.60;99.90
2062;DHT22;11070;51.336;12.340;2023-01-15T10:11:04;6.60;99.90
2062;DHT22;11070;51.336;12.340;2023-01-15T10:13:43;6.70;99.90
2062;DHT22;11070;51.336;12.340;2023-01-15T10:16:13;6.70;99.90
2062;DHT22;11070;51.336;12.340;2023-01-15T10:18:44;6.80;99.90
2062;DHT22;11070;51.336;12.340;2023-01-15T10:26:37;7.40;99.90
2062;DHT22;11070;51.336;12.340;2023-01-15T10:43:24;6.90;1.00
2062;DHT22;11070;51.336;12.340;2023-01-15T10:46:09;6.90;1.00
2062;DHT22;11070;51.336;12.340;2023-01-15T10:48:44;6.90;1.00
2062;DHT22;11070;51.336;12.340;2023-01-15T10:51:26;6.90;1.00
2062;DHT22;11070;51.336;12.340;2023-01-15T10:56:34;7.00;1.00
2062;DHT22;11070;51.336;12.340;2023-01-15T10:59:15;7.10;1.00
2062;DHT22;11070;51.336;12.340;2023-01-15T11:01:44;7.30;1.00
2062;DHT22;11070;51.336;12.340;2023-01-15T11:04:11;7.50;1.00
2062;DHT22;11070;51.336;12.340;2023-01-15T11:06:38;7.80;1.00
2062;DHT22;11070;51.336;12.340;2023-01-15T11:09:04;8.10;1.00
2062;DHT22;11070;51.336;12.340;2023-01-15T11:11:35;8.30;1.00
2062;DHT22;11070;51.336;12.340;2023-01-15T11:14:37;8.40;1.00
2062;DHT22;11070;51.336;12.340;2023-01-15T11:17:24;8.10;1.00
2062;DHT22;11070;51.336;12.340;2023-01-15T11:20:33;8.20;1.00
2062;DHT22;11070;51.336;12.340;2023-01-15T11:23:14;8.10;1.00
2062;DHT22;11070;51.336;12.340;2023-01-15T11:25:55;8.00;1.00
2062;DHT22;11070;51.336;12.340;2023-01-15T11:28:50;8.00;1.00
2062;DHT22;11070;51.336;12.340;2023-01-15T11:31:19;7.70;1.00
2062;DHT22;11070;51.336;12.340;2023-01-15T11:33:57;7.60;1.00
2062;DHT22;11070;51.336;12.340;2023-01-15T11:36:25;7.60;1.00
2062;DHT22;11070;51.336;12.340;2023-01-15T11:38:52;7.60;1.00
2062;DHT22;11070;51.336;12.340;2023-01-15T11:41:27;7.50;1.00
2062;DHT22;11070;51.336;12.340;2023-01-15T11:44:13;7.60;1.00
2062;DHT22;11070;51.336;12.340;2023-01-15T11:46:58;7.60;1.00
2062;DHT22;11070;51.336;12.340;2023-01-15T11:49:52;7.50;1.00
2062;DHT22;11070;51.336;12.340;2023-01-15T11:52:57;7.40;1.00
2062;DHT22;11070;51.336;12.340;2023-01-15T11:55:25;7.30;1.00
2062;DHT22;11070;51.336;12.340;2023-01-15T11:57:51;7.20;1.00
2062;DHT22;11070;51.336;12.340;2023-01-15T12:00:28;7.10;1.00
2062;DHT22;11070;51.336;12.340;2023-01-15T12:03:03;7.10;1.00
2062;DHT22;11070;51.336;12.340;2023-01-15T12:05:34;7.00;1.00
2062;DHT22;11070;51.336;12.340;2023-01-15T12:08:12;7.00;1.00
2062;DHT22;11070;51.336;12.340;2023-01-15T12:10:51;7.00;1.00
2062;DHT22;11070;51.336;12.340;2023-01-15T12:13:43;7.00;1.00
2062;DHT22;11070;51.336;12.340;2023-01-15T12:23:59;6.90;1.00
2062;DHT22;11070;51.336;12.340;2023-01-15T12:26:57;6.90;1.00
2062;DHT22;11070;51.336;12.340;2023-01-15T12:31:59;6.90;1.00
2062;DHT22;11070;51.336;12.340;2023-01-15T12:34:57;6.90;1.00
2062;DHT22;11070;51.336;12.340;2023-01-15T12:37:33;6.90;1.00
2062;DHT22;11070;51.336;12.340;2023-01-15T12:40:23;6.90;1.00
2062;DHT22;11070;51.336;12.340;2023-01-15T12:42:52;6.90;1.00
2062;DHT22;11070;51.336;12.340;2023-01-15T12:45:40;6.90;1.00
2062;DHT22;11070;51.336;12.340;2023-01-15T12:50:53;6.80;1.00
2062;DHT22;11070;51.336;12.340;2023-01-15T12:53:22;6.80;1.00
2062;DHT22;11070;51.336;12.340;2023-01-15T13:03:52;6.70;1.00
2062;DHT22;11070;51.336;12.340;2023-01-15T13:06:22;6.70;1.00
2062;DHT22;11070;51.336;12.340;2023-01-15T13:11:20;6.70;1.00
2062;DHT22;11070;51.336;12.340;2023-01-15T13:13:45;6.70;1.00
2062;DHT22;11070;51.336;12.340;2023-01-15T13:16:38;6.70;1.00
2062;DHT22;11070;51.336;12.340;2023-01-15T13:21:54;6.70;1.00
2062;DHT22;11070;51.336;12.340;2023-01-15T13:27:27;6.60;1.00
2062;DHT22;11070;51.336;12.340;2023-01-15T13:32:49;6.60;1.00
2062;DHT22;11070;51.336;12.340;2023-01-15T13:35:32;6.60;1.00
2062;DHT22;11070;51.336;12.340;2023-01-15T13:38:01;6.60;1.00
2062;DHT22;11070;51.336;12.340;2023-01-15T13:40:34;6.60;1.00
2062;DHT22;11070;51.336;12.340;2023-01-15T13:43:04;6.60;1.00
2062;DHT22;11070;51.336;12.340;2023-01-15T13:45:47;6.60;1.00
2062;DHT22;11070;51.336;12.340;2023-01-15T13:48:31;6.60;1.00
2062;DHT22;11070;51.336;12.340;2023-01-15T13:51:02;6.50;1.00
2062;DHT22;11070;51.336;12.340;2023-01-15T13:53:44;6.50;1.00
2062;DHT22;11070;51.336;12.340;2023-01-15T13:56:12;6.70;1.00
2062;DHT22;11070;51.336;12.340;2023-01-15T13:58:59;6.70;1.00
2062;DHT22;11070;51.336;12.340;2023-01-15T14:01:35;6.70;1.00
2062;DHT22;11070;51.336;12.340;2023-01-15T14:06:47;6.70;1.00
2062;DHT22;11070;51.336;12.340;2023-01-15T14:09:28;6.60;1.00
2062;DHT22;11070;51.336;12.340;2023-01-15T14:12:26;6.60;1.00
2062;DHT22;11070;51.336;12.340;2023-01-15T14:15:06;6.50;1.00
2062;DHT22;11070;51.336;12.340;2023-01-15T14:31:28;7.00;1.00
2062;DHT22;11070;51.336;12.340;2023-01-15T14:34:23;7.50;1.00
2062;DHT22;11070;51.336;12.340;2023-01-15T14:37:38;7.90;1.00
2062;DHT22;11070;51.336;12.340;2023-01-15T14:39:53;7.80;1.00
2062;DHT22;11070;51.336;12.340;2023-01-15T14:47:49;7.50;1.00
2062;DHT22;11070;51.336;12.340;2023-01-15T14:50:28;7.40;1.00
2062;DHT22;11070;51.336;12.340;2023-01-15T14:58:13;7.50;1.00
2062;DHT22;11070;51.336;12.340;2023-01-15T15:00:43;7.30;1.00
2062;DHT22;11070;51.336;12.340;2023-01-15T15:03:19;7.20;1.00
2062;DHT22;11070;51.336;12.340;2023-01-15T15:05:46;7.00;1.00
2062;DHT22;11070;51.336;12.340;2023-01-15T15:08:14;6.90;1.00
2062;DHT22;11070;51.336;12.340;2023-01-15T15:10:43;6.70;1.00
2062;DHT22;11070;51.336;12.340;2023-01-15T15:13:25;6.50;1.00
2062;DHT22;11070;51.336;12.340;2023-01-15T15:18:37;6.30;1.00
2062;DHT22;11070;51.336;12.340;2023-01-15T15:26:25;6.10;1.00
2062;DHT22;11070;51.336;12.340;2023-01-15T15:29:09;6.00;1.00
2062;DHT22;11070;51.336;12.340;2023-01-15T15:31:44;5.90;1.00
2062;DHT22;11070;51.336;12.340;2023-01-15T15:34:36;5.80;1.00
2062;DHT22;11070;51.336;12.340;2023-01-15T15:37:13;5.80;1.00
2062;DHT22;11070;51.336;12.340;2023-01-15T15:39:59;5.80;1.00
2062;DHT22;11070;51.336;12.340;2023-01-15T15:42:35;5.80;1.00
2062;DHT22;11070;51.336;12.340;2023-01-15T15:45:27;5.70;1.00
2062;DHT22;11070;51.336;12.340;2023-01-15T15:48:18;5.60;1.00
2062;DHT22;11070;51.336;12.340;2023-01-15T15:51:04;5.60;1.00
2062;DHT22;11070;51.336;12.340;2023-01-15T15:53:30;5.50;1.00
2062;DHT22;11070;51.336;12.340;2023-01-15T15:55:57;5.50;1.00
2062;DHT22;11070;51.336;12.340;2023-01-15T15:58:35;5.50;1.00
2062;DHT22;11070;51.336;12.340;2023-01-15T16:01:01;5.40;1.00
2062;DHT22;11070;51.336;12.340;2023-01-15T16:03:29;5.40;1.00
2062;DHT22;11070;51.336;12.340;2023-01-15T16:06:04;5.30;1.00
2062;DHT22;11070;51.336;12.340;2023-01-15T16:08:32;5.30;1.00
2062;DHT22;11070;51.336;12.340;2023-01-15T16:11:07;5.40;1.00
2062;DHT22;11070;51.336;12.340;2023-01-15T16:16:04;5.30;1.00
2062;DHT22;11070;51.336;12.340;2023-01-15T16:18:38;5.30;1.00
2062;DHT22;11070;51.336;12.340;2023-01-15T16:21:21;5.30;1.00
2062;DHT22;11070;51.336;12.340;2023-01-15T16:24:17;5.30;1.00
2062;DHT22;11070;51.336;12.340;2023-01-15T16:26:51;5.30;1.00
2062;DHT22;11070;51.336;12.340;2023-01-15T16:29:24;5.40;1.00
2062;DHT22;11070;51.336;12.340;2023-01-15T16:31:51;5.40;1.00
2062;DHT22;11070;51.336;12.340;2023-01-15T16:34:28;5.40;1.00
2062;DHT22;11070;51.336;12.340;2023-01-15T16:36:55;5.40;1.00
2062;DHT22;11070;51.336;12.340;2023-01-15T16:41:56;5.40;1.00
2062;DHT22;11070;51.336;12.340;2023-01-15T16:44:49;5.40;1.00
2062;DHT22;11070;51.336;12.340;2023-01-15T16:47:31;5.50;1.00
2062;DHT22;11070;51.336;12.340;2023-01-15T16:52:53;5.50;1.00
2062;DHT22;11070;51.336;12.340;2023-01-15T16:55:37;5.50;1.00
2062;DHT22;11070;51.336;12.340;2023-01-15T17:03:52;5.50;1.00
2062;DHT22;11070;51.336;12.340;2023-01-15T17:06:21;5.50;1.00
2062;DHT22;11070;51.336;12.340;2023-01-15T17:08:49;5.50;1.00
2062;DHT22;11070;51.336;12.340;2023-01-15T17:13:49;5.50;1.00
2062;DHT22;11070;51.336;12.340;2023-01-15T17:16:20;5.50;1.00
2062;DHT22;11070;51.336;12.340;2023-01-15T17:18:47;5.50;1.00
2062;DHT22;11070;51.336;12.340;2023-01-15T17:21:18;5.50;1.00
2062;DHT22;11070;51.336;12.340;2023-01-15T17:23:45;5.50;1.00
2062;DHT22;11070;51.336;12.340;2023-01-15T17:26:19;5.50;1.00
2062;DHT22;11070;51.336;12.340;2023-01-15T17:28:46;5.50;1.00
2062;DHT22;11070;51.336;12.340;2023-01-15T17:31:33;5.50;1.00
2062;DHT22;11070;51.336;12.340;2023-01-15T17:34:00;5.50;1.00
2062;DHT22;11070;51.336;12.340;2023-01-15T17:36:27;5.50;1.00
2062;DHT22;11070;51.336;12.340;2023-01-15T17:38:54;5.50;1.00
2062;DHT22;11070;51.336;12.340;2023-01-15T17:41:20;5.50;1.00
2062;DHT22;11070;51.336;12.340;2023-01-15T17:43:47;5.50;1.00
2062;DHT22;11070;51.336;12.340;2023-01-15T17:46:13;5.50;1.00
2062;DHT22;11070;51.336;12.340;2023-01-15T17:48:39;5.50;1.00
2062;DHT22;11070;51.336;12.340;2023-01-15T17:51:09;5.50;1.00
2062;DHT22;11070;51.336;12.340;2023-01-15T17:53:35;5.50;1.00
2062;DHT22;11070;51.336;12.340;2023-01-15T17:56:02;5.50;1.00
2062;DHT22;11070;51.336;12.340;2023-01-15T17:58:47;5.50;1.00
2062;DHT22;11070;51.336;12.340;2023-01-15T18:01:43;5.40;1.00
2062;DHT22;11070;51.336;12.340;2023-01-15T18:04:32;5.30;1.00
2062;DHT22;11070;51.336;12.340;2023-01-15T18:07:21;5.30;1.00
2062;DHT22;11070;51.336;12.340;2023-01-15T18:09:47;5.30;1.00
2062;DHT22;11070;51.336;12.340;2023-01-15T18:12:14;5.30;1.00
2062;DHT22;11070;51.336;12.340;2023-01-15T18:14:40;5.30;1.00
2062;DHT22;11070;51.336;12.340;2023-01-15T18:17:06;5.20;1.00
2062;DHT22;11070;51.336;12.340;2023-01-15T18:19:31;5.20;1.00
2062;DHT22;11070;51.336;12.340;2023-01-15T18:21:57;5.20;1.00
2062;DHT22;11070;51.336;12.340;2023-01-15T18:24:22;5.30;1.00
2062;DHT22;11070;51.336;12.340;2023-01-15T18:26:48;5.30;1.00
2062;DHT22;11070;51.336;12.340;2023-01-15T18:29:18;5.30;1.00
2062;DHT22;11070;51.336;12.340;2023-01-15T18:31:44;5.20;1.00
2062;DHT22;11070;51.336;12.340;2023-01-15T18:34:10;5.20;1.00
2062;DHT22;11070;51.336;12.340;2023-01-15T18:36:35;5.10;1.00
2062;DHT22;11070;51.336;12.340;2023-01-15T18:39:01;5.10;1.00
2062;DHT22;11070;51.336;12.340;2023-01-15T18:41:32;5.10;1.00
2062;DHT22;11070;51.336;12.340;2023-01-15T18:46:49;5.00;1.00